Mechanicsville, Virginia
Current Conditions -  °F | °C
As of 10:54 AM on Friday 19 Dec 2014 (Local Time) from KOFP Reporting Station
Clear Clear  
Wind Chill: 40°   Ceiling: Unl
Heat Index: 40°   Visibility: 10mi
Dew Point: 24°   Wind: 3mph
Humidity: 53%   Direction: NA
Pressure: 30.2"   Gusts: NA
Location:  37.61°N, 77.38°W
Report Text: KOFP 191554Z AUTO VRB03KT 10SM CLR 04/M04 A3020 RMK AO2 SLP229 T00441044
Loading
Personal Weather Stations






























Interactive Weather Map New forecast layout! Learn more

10-Day Weather Forecast

Advertisements
Track Severe Weather on mobile